sensor_id;sensor_type;location;lat;lon;timestamp;P1;durP1;ratioP1;P2;durP2;ratioP2
7334;SDS011;3708;42.632;23.378;2023-07-13T00:00:46;9.68;;;4.22;;
7334;SDS011;3708;42.632;23.378;2023-07-13T00:03:13;6.18;;;3.50;;
7334;SDS011;3708;42.632;23.378;2023-07-13T00:05:39;7.65;;;3.83;;
7334;SDS011;3708;42.632;23.378;2023-07-13T00:08:06;5.38;;;3.53;;
7334;SDS011;3708;42.632;23.378;2023-07-13T00:10:38;7.13;;;3.55;;
7334;SDS011;3708;42.632;23.378;2023-07-13T00:13:07;9.88;;;4.38;;
7334;SDS011;3708;42.632;23.378;2023-07-13T00:15:34;7.40;;;4.05;;
7334;SDS011;3708;42.632;23.378;2023-07-13T00:18:01;5.03;;;3.47;;
7334;SDS011;3708;42.632;23.378;2023-07-13T00:20:28;7.20;;;4.03;;
7334;SDS011;3708;42.632;23.378;2023-07-13T00:22:55;5.90;;;3.92;;
7334;SDS011;3708;42.632;23.378;2023-07-13T00:25:22;8.85;;;4.45;;
7334;SDS011;3708;42.632;23.378;2023-07-13T00:27:53;7.80;;;4.18;;
7334;SDS011;3708;42.632;23.378;2023-07-13T00:30:22;5.60;;;3.38;;
7334;SDS011;3708;42.632;23.378;2023-07-13T00:32:49;7.63;;;4.15;;
7334;SDS011;3708;42.632;23.378;2023-07-13T00:35:16;7.88;;;3.83;;
7334;SDS011;3708;42.632;23.378;2023-07-13T00:37:43;5.70;;;4.38;;
7334;SDS011;3708;42.632;23.378;2023-07-13T00:40:10;5.82;;;4.00;;
7334;SDS011;3708;42.632;23.378;2023-07-13T00:42:38;3.67;;;3.28;;
7334;SDS011;3708;42.632;23.378;2023-07-13T00:45:07;5.13;;;3.33;;
7334;SDS011;3708;42.632;23.378;2023-07-13T00:47:50;5.97;;;4.30;;
7334;SDS011;3708;42.632;23.378;2023-07-13T00:50:18;6.82;;;3.83;;
7334;SDS011;3708;42.632;23.378;2023-07-13T00:52:48;6.32;;;4.07;;
7334;SDS011;3708;42.632;23.378;2023-07-13T00:55:17;6.97;;;3.83;;
7334;SDS011;3708;42.632;23.378;2023-07-13T00:57:44;6.80;;;3.78;;
7334;SDS011;3708;42.632;23.378;2023-07-13T01:00:12;4.93;;;3.63;;
7334;SDS011;3708;42.632;23.378;2023-07-13T01:02:40;5.43;;;4.10;;
7334;SDS011;3708;42.632;23.378;2023-07-13T01:05:13;4.43;;;3.67;;
7334;SDS011;3708;42.632;23.378;2023-07-13T01:07:41;5.38;;;4.10;;
7334;SDS011;3708;42.632;23.378;2023-07-13T01:10:10;5.72;;;3.70;;
7334;SDS011;3708;42.632;23.378;2023-07-13T01:12:37;4.93;;;4.07;;
7334;SDS011;3708;42.632;23.378;2023-07-13T01:15:05;5.00;;;3.83;;
7334;SDS011;3708;42.632;23.378;2023-07-13T01:17:52;7.35;;;3.85;;
7334;SDS011;3708;42.632;23.378;2023-07-13T01:20:21;4.40;;;3.70;;
7334;SDS011;3708;42.632;23.378;2023-07-13T01:22:50;11.30;;;3.78;;
7334;SDS011;3708;42.632;23.378;2023-07-13T01:25:17;4.13;;;3.50;;
7334;SDS011;3708;42.632;23.378;2023-07-13T01:27:44;4.55;;;3.47;;
7334;SDS011;3708;42.632;23.378;2023-07-13T01:30:11;8.98;;;4.05;;
7334;SDS011;3708;42.632;23.378;2023-07-13T01:32:38;10.43;;;4.13;;
7334;SDS011;3708;42.632;23.378;2023-07-13T01:35:07;10.30;;;3.35;;
7334;SDS011;3708;42.632;23.378;2023-07-13T01:37:34;6.53;;;3.72;;
7334;SDS011;3708;42.632;23.378;2023-07-13T01:40:02;6.85;;;3.50;;
7334;SDS011;3708;42.632;23.378;2023-07-13T01:42:30;6.40;;;4.43;;
7334;SDS011;3708;42.632;23.378;2023-07-13T01:44:56;8.88;;;3.78;;
7334;SDS011;3708;42.632;23.378;2023-07-13T01:47:23;8.60;;;3.90;;
7334;SDS011;3708;42.632;23.378;2023-07-13T01:49:51;4.50;;;3.90;;
7334;SDS011;3708;42.632;23.378;2023-07-13T01:52:18;8.68;;;4.47;;
7334;SDS011;3708;42.632;23.378;2023-07-13T01:54:44;4.68;;;3.92;;
7334;SDS011;3708;42.632;23.378;2023-07-13T01:57:13;8.85;;;4.45;;
7334;SDS011;3708;42.632;23.378;2023-07-13T01:59:40;5.80;;;3.78;;
7334;SDS011;3708;42.632;23.378;2023-07-13T02:02:06;5.55;;;3.95;;
7334;SDS011;3708;42.632;23.378;2023-07-13T02:04:33;5.00;;;4.30;;
7334;SDS011;3708;42.632;23.378;2023-07-13T02:07:00;5.38;;;3.90;;
7334;SDS011;3708;42.632;23.378;2023-07-13T02:09:27;6.28;;;4.13;;
7334;SDS011;3708;42.632;23.378;2023-07-13T02:11:54;4.43;;;3.95;;
7334;SDS011;3708;42.632;23.378;2023-07-13T02:14:22;5.50;;;3.95;;
7334;SDS011;3708;42.632;23.378;2023-07-13T02:16:49;5.13;;;4.28;;
7334;SDS011;3708;42.632;23.378;2023-07-13T02:19:16;5.15;;;4.25;;
7334;SDS011;3708;42.632;23.378;2023-07-13T02:21:43;5.43;;;3.92;;
7334;SDS011;3708;42.632;23.378;2023-07-13T02:24:09;6.10;;;4.30;;
7334;SDS011;3708;42.632;23.378;2023-07-13T02:26:42;9.13;;;4.53;;
7334;SDS011;3708;42.632;23.378;2023-07-13T02:29:09;7.32;;;4.57;;
7334;SDS011;3708;42.632;23.378;2023-07-13T02:31:37;4.78;;;4.05;;
7334;SDS011;3708;42.632;23.378;2023-07-13T02:34:04;5.85;;;4.63;;
7334;SDS011;3708;42.632;23.378;2023-07-13T02:36:31;7.72;;;4.40;;
7334;SDS011;3708;42.632;23.378;2023-07-13T02:39:00;6.78;;;4.30;;
7334;SDS011;3708;42.632;23.378;2023-07-13T02:41:28;6.30;;;4.15;;
7334;SDS011;3708;42.632;23.378;2023-07-13T02:43:55;4.82;;;3.75;;
7334;SDS011;3708;42.632;23.378;2023-07-13T02:46:27;7.38;;;4.00;;
7334;SDS011;3708;42.632;23.378;2023-07-13T02:48:56;8.38;;;4.45;;
7334;SDS011;3708;42.632;23.378;2023-07-13T02:51:22;5.55;;;4.20;;
7334;SDS011;3708;42.632;23.378;2023-07-13T02:53:49;7.57;;;4.13;;
7334;SDS011;3708;42.632;23.378;2023-07-13T02:56:16;4.45;;;4.03;;
7334;SDS011;3708;42.632;23.378;2023-07-13T02:58:43;8.65;;;4.30;;
7334;SDS011;3708;42.632;23.378;2023-07-13T03:01:10;5.20;;;3.97;;
7334;SDS011;3708;42.632;23.378;2023-07-13T03:03:37;6.63;;;4.10;;
7334;SDS011;3708;42.632;23.378;2023-07-13T03:06:06;5.25;;;3.88;;
7334;SDS011;3708;42.632;23.378;2023-07-13T03:08:33;9.82;;;4.85;;
7334;SDS011;3708;42.632;23.378;2023-07-13T03:11:00;4.70;;;3.90;;
7334;SDS011;3708;42.632;23.378;2023-07-13T03:13:27;10.60;;;4.88;;
7334;SDS011;3708;42.632;23.378;2023-07-13T03:15:54;4.80;;;3.78;;
7334;SDS011;3708;42.632;23.378;2023-07-13T03:18:21;10.23;;;5.40;;
7334;SDS011;3708;42.632;23.378;2023-07-13T03:20:49;5.15;;;4.57;;
7334;SDS011;3708;42.632;23.378;2023-07-13T03:23:19;6.93;;;4.20;;
7334;SDS011;3708;42.632;23.378;2023-07-13T03:25:47;5.95;;;4.75;;
7334;SDS011;3708;42.632;23.378;2023-07-13T03:28:14;6.93;;;4.78;;
7334;SDS011;3708;42.632;23.378;2023-07-13T03:30:41;7.95;;;5.20;;
7334;SDS011;3708;42.632;23.378;2023-07-13T03:33:08;5.50;;;4.05;;
7334;SDS011;3708;42.632;23.378;2023-07-13T03:35:35;5.95;;;5.25;;
7334;SDS011;3708;42.632;23.378;2023-07-13T03:38:07;8.48;;;5.28;;
7334;SDS011;3708;42.632;23.378;2023-07-13T03:40:35;5.65;;;5.05;;
7334;SDS011;3708;42.632;23.378;2023-07-13T03:43:02;6.97;;;4.70;;
7334;SDS011;3708;42.632;23.378;2023-07-13T03:45:29;7.82;;;5.28;;
7334;SDS011;3708;42.632;23.378;2023-07-13T03:47:56;7.45;;;5.15;;
7334;SDS011;3708;42.632;23.378;2023-07-13T03:50:23;7.88;;;5.00;;
7334;SDS011;3708;42.632;23.378;2023-07-13T03:52:49;5.82;;;4.80;;
7334;SDS011;3708;42.632;23.378;2023-07-13T03:55:16;7.35;;;4.50;;
7334;SDS011;3708;42.632;23.378;2023-07-13T03:57:44;5.70;;;4.70;;
7334;SDS011;3708;42.632;23.378;2023-07-13T04:00:11;5.57;;;4.95;;
7334;SDS011;3708;42.632;23.378;2023-07-13T04:02:39;7.82;;;4.78;;
7334;SDS011;3708;42.632;23.378;2023-07-13T04:05:06;6.30;;;5.05;;
7334;SDS011;3708;42.632;23.378;2023-07-13T04:07:33;5.10;;;4.60;;
7334;SDS011;3708;42.632;23.378;2023-07-13T04:09:59;8.30;;;4.82;;
7334;SDS011;3708;42.632;23.378;2023-07-13T04:12:26;10.73;;;5.15;;
7334;SDS011;3708;42.632;23.378;2023-07-13T04:14:54;8.68;;;5.30;;
7334;SDS011;3708;42.632;23.378;2023-07-13T04:17:21;7.15;;;5.05;;
7334;SDS011;3708;42.632;23.378;2023-07-13T04:19:48;8.95;;;5.10;;
7334;SDS011;3708;42.632;23.378;2023-07-13T04:22:15;8.55;;;5.03;;
7334;SDS011;3708;42.632;23.378;2023-07-13T04:24:42;9.57;;;5.95;;
7334;SDS011;3708;42.632;23.378;2023-07-13T04:27:08;7.32;;;5.10;;
7334;SDS011;3708;42.632;23.378;2023-07-13T04:29:35;8.27;;;5.57;;
7334;SDS011;3708;42.632;23.378;2023-07-13T04:32:04;8.77;;;4.82;;
7334;SDS011;3708;42.632;23.378;2023-07-13T04:34:31;8.38;;;5.07;;
7334;SDS011;3708;42.632;23.378;2023-07-13T04:37:00;9.95;;;5.00;;
7334;SDS011;3708;42.632;23.378;2023-07-13T04:39:26;8.95;;;5.65;;
7334;SDS011;3708;42.632;23.378;2023-07-13T04:41:53;11.77;;;5.75;;
7334;SDS011;3708;42.632;23.378;2023-07-13T04:44:21;10.18;;;4.97;;
7334;SDS011;3708;42.632;23.378;2023-07-13T04:46:48;10.35;;;5.72;;
7334;SDS011;3708;42.632;23.378;2023-07-13T04:49:16;8.15;;;5.78;;
7334;SDS011;3708;42.632;23.378;2023-07-13T04:51:43;7.55;;;5.80;;
7334;SDS011;3708;42.632;23.378;2023-07-13T04:54:10;5.78;;;5.15;;
7334;SDS011;3708;42.632;23.378;2023-07-13T04:56:36;8.40;;;5.07;;
7334;SDS011;3708;42.632;23.378;2023-07-13T04:59:03;7.05;;;5.47;;
7334;SDS011;3708;42.632;23.378;2023-07-13T05:01:30;6.82;;;5.10;;
7334;SDS011;3708;42.632;23.378;2023-07-13T05:03:57;10.43;;;6.05;;
7334;SDS011;3708;42.632;23.378;2023-07-13T05:06:26;8.95;;;6.18;;
7334;SDS011;3708;42.632;23.378;2023-07-13T05:08:53;8.15;;;5.20;;
7334;SDS011;3708;42.632;23.378;2023-07-13T05:11:20;5.82;;;4.47;;
7334;SDS011;3708;42.632;23.378;2023-07-13T05:13:47;7.90;;;5.32;;
7334;SDS011;3708;42.632;23.378;2023-07-13T05:16:14;6.05;;;5.00;;
7334;SDS011;3708;42.632;23.378;2023-07-13T05:18:41;8.13;;;5.82;;
7334;SDS011;3708;42.632;23.378;2023-07-13T05:21:08;5.78;;;4.80;;
7334;SDS011;3708;42.632;23.378;2023-07-13T05:23:38;9.75;;;5.07;;
7334;SDS011;3708;42.632;23.378;2023-07-13T05:26:06;6.55;;;5.05;;
7334;SDS011;3708;42.632;23.378;2023-07-13T05:28:33;6.82;;;5.55;;
7334;SDS011;3708;42.632;23.378;2023-07-13T05:31:00;6.32;;;4.88;;
7334;SDS011;3708;42.632;23.378;2023-07-13T05:33:27;9.07;;;5.68;;
7334;SDS011;3708;42.632;23.378;2023-07-13T05:35:54;9.15;;;6.15;;
7334;SDS011;3708;42.632;23.378;2023-07-13T05:38:21;7.65;;;5.13;;
7334;SDS011;3708;42.632;23.378;2023-07-13T05:40:49;10.13;;;5.18;;
7334;SDS011;3708;42.632;23.378;2023-07-13T05:43:16;10.35;;;5.85;;
7334;SDS011;3708;42.632;23.378;2023-07-13T05:45:43;8.02;;;6.13;;
7334;SDS011;3708;42.632;23.378;2023-07-13T05:48:10;6.20;;;4.97;;
7334;SDS011;3708;42.632;23.378;2023-07-13T05:50:37;12.45;;;6.15;;
7334;SDS011;3708;42.632;23.378;2023-07-13T05:53:04;17.33;;;5.75;;
7334;SDS011;3708;42.632;23.378;2023-07-13T05:55:31;8.05;;;5.60;;
7334;SDS011;3708;42.632;23.378;2023-07-13T05:58:00;11.18;;;5.65;;
7334;SDS011;3708;42.632;23.378;2023-07-13T06:00:27;10.00;;;5.88;;
7334;SDS011;3708;42.632;23.378;2023-07-13T06:02:55;11.63;;;5.57;;
7334;SDS011;3708;42.632;23.378;2023-07-13T06:05:23;9.00;;;6.60;;
7334;SDS011;3708;42.632;23.378;2023-07-13T06:07:50;15.68;;;6.22;;
7334;SDS011;3708;42.632;23.378;2023-07-13T06:10:17;10.38;;;7.35;;
7334;SDS011;3708;42.632;23.378;2023-07-13T06:12:44;17.27;;;7.00;;
7334;SDS011;3708;42.632;23.378;2023-07-13T06:15:12;12.02;;;6.63;;
7334;SDS011;3708;42.632;23.378;2023-07-13T06:17:41;8.75;;;6.05;;
7334;SDS011;3708;42.632;23.378;2023-07-13T06:20:08;10.27;;;6.18;;
7334;SDS011;3708;42.632;23.378;2023-07-13T06:22:35;12.45;;;7.05;;
7334;SDS011;3708;42.632;23.378;2023-07-13T06:25:01;12.50;;;6.18;;
7334;SDS011;3708;42.632;23.378;2023-07-13T06:27:29;13.48;;;7.00;;
7334;SDS011;3708;42.632;23.378;2023-07-13T06:29:56;9.40;;;5.85;;
7334;SDS011;3708;42.632;23.378;2023-07-13T06:32:25;9.00;;;6.50;;
7334;SDS011;3708;42.632;23.378;2023-07-13T06:34:52;9.95;;;5.45;;
7334;SDS011;3708;42.632;23.378;2023-07-13T06:37:19;12.68;;;6.50;;
7334;SDS011;3708;42.632;23.378;2023-07-13T06:39:46;10.10;;;6.05;;
7334;SDS011;3708;42.632;23.378;2023-07-13T06:42:13;9.75;;;6.05;;
7334;SDS011;3708;42.632;23.378;2023-07-13T06:44:39;8.98;;;5.75;;
7334;SDS011;3708;42.632;23.378;2023-07-13T06:47:06;7.80;;;5.43;;
7334;SDS011;3708;42.632;23.378;2023-07-13T06:49:34;8.32;;;5.90;;
7334;SDS011;3708;42.632;23.378;2023-07-13T06:52:01;10.75;;;5.68;;
7334;SDS011;3708;42.632;23.378;2023-07-13T06:54:29;7.90;;;5.80;;
7334;SDS011;3708;42.632;23.378;2023-07-13T06:56:56;10.57;;;5.95;;
7334;SDS011;3708;42.632;23.378;2023-07-13T06:59:22;9.68;;;5.55;;
7334;SDS011;3708;42.632;23.378;2023-07-13T07:01:49;10.60;;;5.55;;
7334;SDS011;3708;42.632;23.378;2023-07-13T07:04:16;8.88;;;6.40;;
7334;SDS011;3708;42.632;23.378;2023-07-13T07:06:44;14.77;;;5.80;;
7334;SDS011;3708;42.632;23.378;2023-07-13T07:09:12;7.72;;;6.50;;
7334;SDS011;3708;42.632;23.378;2023-07-13T07:11:38;10.25;;;8.30;;
7334;SDS011;3708;42.632;23.378;2023-07-13T07:14:05;9.43;;;6.85;;
7334;SDS011;3708;42.632;23.378;2023-07-13T07:16:32;12.27;;;5.90;;
7334;SDS011;3708;42.632;23.378;2023-07-13T07:18:59;6.93;;;6.20;;
7334;SDS011;3708;42.632;23.378;2023-07-13T07:21:25;9.35;;;5.90;;
7334;SDS011;3708;42.632;23.378;2023-07-13T07:23:53;10.27;;;5.80;;
7334;SDS011;3708;42.632;23.378;2023-07-13T07:26:20;11.70;;;6.65;;
7334;SDS011;3708;42.632;23.378;2023-07-13T07:28:47;10.30;;;6.03;;
7334;SDS011;3708;42.632;23.378;2023-07-13T07:31:14;14.45;;;6.97;;
7334;SDS011;3708;42.632;23.378;2023-07-13T07:33:41;11.90;;;6.43;;
7334;SDS011;3708;42.632;23.378;2023-07-13T07:36:08;17.00;;;6.13;;
7334;SDS011;3708;42.632;23.378;2023-07-13T07:38:35;10.77;;;6.75;;
7334;SDS011;3708;42.632;23.378;2023-07-13T07:41:04;11.45;;;5.95;;
7334;SDS011;3708;42.632;23.378;2023-07-13T07:43:31;11.88;;;6.20;;
7334;SDS011;3708;42.632;23.378;2023-07-13T07:45:58;13.50;;;5.70;;
7334;SDS011;3708;42.632;23.378;2023-07-13T07:48:24;11.10;;;6.47;;
7334;SDS011;3708;42.632;23.378;2023-07-13T07:50:51;13.70;;;6.10;;
7334;SDS011;3708;42.632;23.378;2023-07-13T07:53:18;7.80;;;5.82;;
7334;SDS011;3708;42.632;23.378;2023-07-13T07:55:45;11.70;;;6.55;;
7334;SDS011;3708;42.632;23.378;2023-07-13T07:58:14;8.88;;;6.10;;
7334;SDS011;3708;42.632;23.378;2023-07-13T08:00:42;12.18;;;6.75;;
7334;SDS011;3708;42.632;23.378;2023-07-13T08:03:09;11.68;;;6.13;;
7334;SDS011;3708;42.632;23.378;2023-07-13T08:05:36;9.52;;;6.50;;
7334;SDS011;3708;42.632;23.378;2023-07-13T08:08:03;9.93;;;6.45;;
7334;SDS011;3708;42.632;23.378;2023-07-13T08:10:30;11.00;;;6.65;;
7334;SDS011;3708;42.632;23.378;2023-07-13T08:12:57;12.35;;;6.72;;
7334;SDS011;3708;42.632;23.378;2023-07-13T08:15:25;7.47;;;5.80;;
7334;SDS011;3708;42.632;23.378;2023-07-13T08:17:52;7.35;;;6.40;;
7334;SDS011;3708;42.632;23.378;2023-07-13T08:20:18;7.80;;;6.65;;
7334;SDS011;3708;42.632;23.378;2023-07-13T08:22:45;11.45;;;6.15;;
7334;SDS011;3708;42.632;23.378;2023-07-13T08:25:12;7.75;;;6.10;;
7334;SDS011;3708;42.632;23.378;2023-07-13T08:27:39;9.23;;;6.20;;
7334;SDS011;3708;42.632;23.378;2023-07-13T08:30:06;13.63;;;6.75;;
7334;SDS011;3708;42.632;23.378;2023-07-13T08:32:35;10.35;;;7.20;;
7334;SDS011;3708;42.632;23.378;2023-07-13T08:35:03;8.10;;;6.72;;
7334;SDS011;3708;42.632;23.378;2023-07-13T08:37:30;11.43;;;6.35;;
7334;SDS011;3708;42.632;23.378;2023-07-13T08:39:57;10.45;;;6.60;;
7334;SDS011;3708;42.632;23.378;2023-07-13T08:42:27;9.93;;;5.95;;
7334;SDS011;3708;42.632;23.378;2023-07-13T08:45:05;10.63;;;5.95;;
7334;SDS011;3708;42.632;23.378;2023-07-13T08:47:42;9.13;;;6.60;;
7334;SDS011;3708;42.632;23.378;2023-07-13T08:50:14;12.02;;;6.82;;
7334;SDS011;3708;42.632;23.378;2023-07-13T08:52:45;10.68;;;6.45;;
7334;SDS011;3708;42.632;23.378;2023-07-13T08:55:14;8.35;;;6.00;;
7334;SDS011;3708;42.632;23.378;2023-07-13T08:57:45;11.07;;;6.18;;
7334;SDS011;3708;42.632;23.378;2023-07-13T09:00:15;8.75;;;5.97;;
7334;SDS011;3708;42.632;23.378;2023-07-13T09:02:44;7.28;;;6.05;;
7334;SDS011;3708;42.632;23.378;2023-07-13T09:05:17;9.82;;;6.45;;
7334;SDS011;3708;42.632;23.378;2023-07-13T09:08:07;8.73;;;6.03;;
7334;SDS011;3708;42.632;23.378;2023-07-13T09:10:46;14.27;;;6.60;;
7334;SDS011;3708;42.632;23.378;2023-07-13T09:13:21;11.52;;;6.50;;
7334;SDS011;3708;42.632;23.378;2023-07-13T09:15:54;11.30;;;5.97;;
7334;SDS011;3708;42.632;23.378;2023-07-13T09:18:23;13.38;;;6.30;;
7334;SDS011;3708;42.632;23.378;2023-07-13T09:20:54;13.15;;;6.45;;
7334;SDS011;3708;42.632;23.378;2023-07-13T09:23:25;13.30;;;6.53;;
7334;SDS011;3708;42.632;23.378;2023-07-13T09:26:05;9.45;;;6.45;;
7334;SDS011;3708;42.632;23.378;2023-07-13T09:28:39;8.45;;;6.00;;
7334;SDS011;3708;42.632;23.378;2023-07-13T09:31:10;15.70;;;6.72;;
7334;SDS011;3708;42.632;23.378;2023-07-13T09:33:41;12.95;;;6.47;;
7334;SDS011;3708;42.632;23.378;2023-07-13T09:36:18;12.23;;;6.60;;
7334;SDS011;3708;42.632;23.378;2023-07-13T09:38:48;11.45;;;6.28;;
7334;SDS011;3708;42.632;23.378;2023-07-13T09:41:29;9.43;;;6.50;;
7334;SDS011;3708;42.632;23.378;2023-07-13T09:44:12;14.85;;;6.63;;
7334;SDS011;3708;42.632;23.378;2023-07-13T09:46:43;16.92;;;7.28;;
7334;SDS011;3708;42.632;23.378;2023-07-13T09:49:13;14.00;;;6.40;;
7334;SDS011;3708;42.632;23.378;2023-07-13T09:51:40;14.48;;;6.70;;
7334;SDS011;3708;42.632;23.378;2023-07-13T09:54:17;10.93;;;6.13;;
7334;SDS011;3708;42.632;23.378;2023-07-13T09:56:45;12.75;;;7.20;;
7334;SDS011;3708;42.632;23.378;2023-07-13T09:59:17;10.48;;;6.53;;
7334;SDS011;3708;42.632;23.378;2023-07-13T10:01:46;8.80;;;6.18;;
7334;SDS011;3708;42.632;23.378;2023-07-13T10:04:17;9.52;;;6.50;;
7334;SDS011;3708;42.632;23.378;2023-07-13T10:06:44;10.55;;;6.15;;
7334;SDS011;3708;42.632;23.378;2023-07-13T10:09:14;12.00;;;5.88;;
7334;SDS011;3708;42.632;23.378;2023-07-13T10:11:42;11.13;;;6.53;;
7334;SDS011;3708;42.632;23.378;2023-07-13T10:14:10;8.50;;;6.13;;
7334;SDS011;3708;42.632;23.378;2023-07-13T10:16:41;9.35;;;6.43;;
7334;SDS011;3708;42.632;23.378;2023-07-13T10:19:11;15.50;;;7.15;;
7334;SDS011;3708;42.632;23.378;2023-07-13T10:21:43;11.73;;;5.97;;
7334;SDS011;3708;42.632;23.378;2023-07-13T10:24:18;9.45;;;6.43;;
7334;SDS011;3708;42.632;23.378;2023-07-13T10:26:48;13.52;;;6.32;;
7334;SDS011;3708;42.632;23.378;2023-07-13T10:29:20;12.18;;;6.50;;
7334;SDS011;3708;42.632;23.378;2023-07-13T10:31:50;12.38;;;7.25;;
7334;SDS011;3708;42.632;23.378;2023-07-13T10:34:18;12.38;;;6.72;;
7334;SDS011;3708;42.632;23.378;2023-07-13T10:36:47;10.07;;;6.38;;
7334;SDS011;3708;42.632;23.378;2023-07-13T10:39:15;9.32;;;6.20;;
7334;SDS011;3708;42.632;23.378;2023-07-13T10:41:46;7.72;;;5.88;;
7334;SDS011;3708;42.632;23.378;2023-07-13T10:44:18;13.10;;;6.35;;
7334;SDS011;3708;42.632;23.378;2023-07-13T10:46:51;9.13;;;6.63;;
7334;SDS011;3708;42.632;23.378;2023-07-13T10:49:20;15.38;;;6.45;;
7334;SDS011;3708;42.632;23.378;2023-07-13T10:51:49;12.63;;;6.43;;
7334;SDS011;3708;42.632;23.378;2023-07-13T10:54:18;13.68;;;6.10;;
7334;SDS011;3708;42.632;23.378;2023-07-13T10:56:52;13.25;;;5.80;;
7334;SDS011;3708;42.632;23.378;2023-07-13T10:59:34;10.65;;;6.15;;
7334;SDS011;3708;42.632;23.378;2023-07-13T11:02:08;9.82;;;6.40;;
7334;SDS011;3708;42.632;23.378;2023-07-13T11:04:42;13.88;;;6.00;;
7334;SDS011;3708;42.632;23.378;2023-07-13T11:07:17;9.75;;;5.85;;
7334;SDS011;3708;42.632;23.378;2023-07-13T11:09:49;9.52;;;5.90;;
7334;SDS011;3708;42.632;23.378;2023-07-13T11:12:28;12.32;;;5.95;;
7334;SDS011;3708;42.632;23.378;2023-07-13T11:15:11;8.90;;;7.07;;
7334;SDS011;3708;42.632;23.378;2023-07-13T11:17:47;8.73;;;6.28;;
7334;SDS011;3708;42.632;23.378;2023-07-13T11:29:07;17.75;;;6.30;;
7334;SDS011;3708;42.632;23.378;2023-07-13T11:31:36;9.65;;;6.40;;
7334;SDS011;3708;42.632;23.378;2023-07-13T11:34:06;9.73;;;5.97;;
7334;SDS011;3708;42.632;23.378;2023-07-13T11:36:42;8.48;;;5.38;;
7334;SDS011;3708;42.632;23.378;2023-07-13T11:39:16;13.50;;;6.15;;
7334;SDS011;3708;42.632;23.378;2023-07-13T11:41:45;9.93;;;5.32;;
7334;SDS011;3708;42.632;23.378;2023-07-13T11:44:18;10.82;;;5.95;;
7334;SDS011;3708;42.632;23.378;2023-07-13T11:46:47;7.28;;;4.97;;
7334;SDS011;3708;42.632;23.378;2023-07-13T11:49:16;10.63;;;5.57;;
7334;SDS011;3708;42.632;23.378;2023-07-13T11:51:44;8.93;;;5.53;;
7334;SDS011;3708;42.632;23.378;2023-07-13T11:54:19;9.60;;;6.15;;
7334;SDS011;3708;42.632;23.378;2023-07-13T11:56:50;8.35;;;5.60;;
7334;SDS011;3708;42.632;23.378;2023-07-13T11:59:17;8.43;;;5.90;;
7334;SDS011;3708;42.632;23.378;2023-07-13T12:01:46;13.65;;;5.32;;
7334;SDS011;3708;42.632;23.378;2023-07-13T12:04:20;10.95;;;5.00;;
7334;SDS011;3708;42.632;23.378;2023-07-13T12:06:54;10.98;;;5.35;;
7334;SDS011;3708;42.632;23.378;2023-07-13T12:09:27;9.30;;;5.13;;
7334;SDS011;3708;42.632;23.378;2023-07-13T12:11:56;15.38;;;5.70;;
7334;SDS011;3708;42.632;23.378;2023-07-13T12:14:33;11.45;;;4.95;;
7334;SDS011;3708;42.632;23.378;2023-07-13T12:17:00;7.15;;;5.47;;
7334;SDS011;3708;42.632;23.378;2023-07-13T12:19:27;10.98;;;5.68;;
7334;SDS011;3708;42.632;23.378;2023-07-13T12:21:56;16.17;;;4.85;;
7334;SDS011;3708;42.632;23.378;2023-07-13T12:24:24;8.50;;;5.03;;
7334;SDS011;3708;42.632;23.378;2023-07-13T12:26:54;11.73;;;4.90;;
7334;SDS011;3708;42.632;23.378;2023-07-13T12:29:24;10.77;;;5.35;;
7334;SDS011;3708;42.632;23.378;2023-07-13T12:31:51;8.38;;;4.95;;
7334;SDS011;3708;42.632;23.378;2023-07-13T12:34:19;7.75;;;4.80;;
7334;SDS011;3708;42.632;23.378;2023-07-13T12:36:47;9.48;;;5.85;;
7334;SDS011;3708;42.632;23.378;2023-07-13T12:39:18;9.30;;;5.47;;
7334;SDS011;3708;42.632;23.378;2023-07-13T12:41:47;12.75;;;5.35;;
7334;SDS011;3708;42.632;23.378;2023-07-13T12:44:17;8.25;;;5.30;;
7334;SDS011;3708;42.632;23.378;2023-07-13T12:46:55;12.85;;;5.78;;
7334;SDS011;3708;42.632;23.378;2023-07-13T12:49:26;10.55;;;5.32;;
7334;SDS011;3708;42.632;23.378;2023-07-13T12:51:58;12.45;;;6.30;;
7334;SDS011;3708;42.632;23.378;2023-07-13T12:54:27;10.43;;;5.72;;
7334;SDS011;3708;42.632;23.378;2023-07-13T12:56:57;10.38;;;5.60;;
7334;SDS011;3708;42.632;23.378;2023-07-13T12:59:31;10.63;;;5.68;;
7334;SDS011;3708;42.632;23.378;2023-07-13T13:02:02;12.55;;;5.45;;
7334;SDS011;3708;42.632;23.378;2023-07-13T13:04:43;11.50;;;5.68;;
7334;SDS011;3708;42.632;23.378;2023-07-13T13:07:11;9.93;;;5.10;;
7334;SDS011;3708;42.632;23.378;2023-07-13T13:09:39;12.30;;;5.47;;
7334;SDS011;3708;42.632;23.378;2023-07-13T13:12:08;8.40;;;5.50;;
7334;SDS011;3708;42.632;23.378;2023-07-13T13:14:36;12.02;;;5.57;;
7334;SDS011;3708;42.632;23.378;2023-07-13T13:17:04;12.38;;;6.32;;
7334;SDS011;3708;42.632;23.378;2023-07-13T13:19:44;14.15;;;5.57;;
7334;SDS011;3708;42.632;23.378;2023-07-13T13:22:11;14.13;;;5.35;;
7334;SDS011;3708;42.632;23.378;2023-07-13T13:24:39;15.52;;;5.20;;
7334;SDS011;3708;42.632;23.378;2023-07-13T13:27:09;12.45;;;5.07;;
7334;SDS011;3708;42.632;23.378;2023-07-13T13:29:43;8.60;;;5.78;;
7334;SDS011;3708;42.632;23.378;2023-07-13T13:32:12;13.00;;;6.05;;
7334;SDS011;3708;42.632;23.378;2023-07-13T13:34:40;9.25;;;5.38;;
7334;SDS011;3708;42.632;23.378;2023-07-13T13:37:11;7.65;;;4.60;;
7334;SDS011;3708;42.632;23.378;2023-07-13T13:39:48;7.68;;;5.82;;
7334;SDS011;3708;42.632;23.378;2023-07-13T13:42:16;10.48;;;4.80;;
7334;SDS011;3708;42.632;23.378;2023-07-13T13:44:44;10.93;;;5.50;;
7334;SDS011;3708;42.632;23.378;2023-07-13T13:47:17;8.50;;;5.03;;
7334;SDS011;3708;42.632;23.378;2023-07-13T13:49:57;12.15;;;5.07;;
7334;SDS011;3708;42.632;23.378;2023-07-13T13:52:26;10.38;;;5.07;;
7334;SDS011;3708;42.632;23.378;2023-07-13T13:54:53;7.68;;;5.35;;
7334;SDS011;3708;42.632;23.378;2023-07-13T13:57:21;12.15;;;5.40;;
7334;SDS011;3708;42.632;23.378;2023-07-13T13:59:51;13.35;;;5.22;;
7334;SDS011;3708;42.632;23.378;2023-07-13T14:02:22;9.00;;;5.10;;
7334;SDS011;3708;42.632;23.378;2023-07-13T14:04:53;8.77;;;5.00;;
7334;SDS011;3708;42.632;23.378;2023-07-13T14:07:22;12.85;;;5.00;;
7334;SDS011;3708;42.632;23.378;2023-07-13T14:09:49;11.43;;;5.28;;
7334;SDS011;3708;42.632;23.378;2023-07-13T14:12:16;10.48;;;5.60;;
7334;SDS011;3708;42.632;23.378;2023-07-13T14:14:43;8.57;;;5.05;;
7334;SDS011;3708;42.632;23.378;2023-07-13T14:17:15;8.43;;;5.00;;
7334;SDS011;3708;42.632;23.378;2023-07-13T14:19:47;14.13;;;5.95;;
7334;SDS011;3708;42.632;23.378;2023-07-13T14:22:16;9.73;;;5.53;;
7334;SDS011;3708;42.632;23.378;2023-07-13T14:24:43;9.73;;;5.55;;
7334;SDS011;3708;42.632;23.378;2023-07-13T14:27:10;8.77;;;5.60;;
7334;SDS011;3708;42.632;23.378;2023-07-13T14:29:37;13.02;;;5.03;;
7334;SDS011;3708;42.632;23.378;2023-07-13T14:32:07;9.05;;;4.75;;
7334;SDS011;3708;42.632;23.378;2023-07-13T14:34:37;11.80;;;4.93;;
7334;SDS011;3708;42.632;23.378;2023-07-13T14:37:05;14.07;;;5.20;;
7334;SDS011;3708;42.632;23.378;2023-07-13T14:39:35;8.32;;;5.07;;
7334;SDS011;3708;42.632;23.378;2023-07-13T14:42:02;10.52;;;5.65;;
7334;SDS011;3708;42.632;23.378;2023-07-13T14:44:29;12.27;;;5.25;;
7334;SDS011;3708;42.632;23.378;2023-07-13T14:46:57;12.85;;;5.75;;
7334;SDS011;3708;42.632;23.378;2023-07-13T14:49:27;8.70;;;5.15;;
7334;SDS011;3708;42.632;23.378;2023-07-13T14:51:58;10.40;;;4.93;;
7334;SDS011;3708;42.632;23.378;2023-07-13T14:54:27;12.32;;;5.63;;
7334;SDS011;3708;42.632;23.378;2023-07-13T14:56:54;8.00;;;5.13;;
7334;SDS011;3708;42.632;23.378;2023-07-13T14:59:21;10.85;;;5.00;;
7334;SDS011;3708;42.632;23.378;2023-07-13T15:01:49;10.75;;;5.43;;
7334;SDS011;3708;42.632;23.378;2023-07-13T15:04:16;10.02;;;5.20;;
7334;SDS011;3708;42.632;23.378;2023-07-13T15:06:53;10.35;;;5.70;;
7334;SDS011;3708;42.632;23.378;2023-07-13T15:09:23;7.82;;;5.20;;
7334;SDS011;3708;42.632;23.378;2023-07-13T15:11:51;13.18;;;5.07;;
7334;SDS011;3708;42.632;23.378;2023-07-13T15:14:18;13.52;;;5.82;;